sensor_id;sensor_type;location;lat;lon;timestamp;temperature;humidity
20929;DHT22;21895;47.072;15.132;2023-08-08T00:00:51;11.10;99.90
20929;DHT22;21895;47.072;15.132;2023-08-08T00:03:17;11.00;99.90
20929;DHT22;21895;47.072;15.132;2023-08-08T00:05:44;10.90;99.90
20929;DHT22;21895;47.072;15.132;2023-08-08T00:08:11;11.00;99.90
20929;DHT22;21895;47.072;15.132;2023-08-08T00:10:37;11.00;99.90
20929;DHT22;21895;47.072;15.132;2023-08-08T00:13:04;11.10;99.90
20929;DHT22;21895;47.072;15.132;2023-08-08T00:15:30;11.10;99.90
20929;DHT22;21895;47.072;15.132;2023-08-08T00:17:57;11.00;99.90
20929;DHT22;21895;47.072;15.132;2023-08-08T00:20:24;11.10;99.90
20929;DHT22;21895;47.072;15.132;2023-08-08T00:22:50;11.20;99.90
20929;DHT22;21895;47.072;15.132;2023-08-08T00:25:17;11.20;99.90
20929;DHT22;21895;47.072;15.132;2023-08-08T00:27:43;11.20;99.90
20929;DHT22;21895;47.072;15.132;2023-08-08T00:30:11;11.20;99.90
20929;DHT22;21895;47.072;15.132;2023-08-08T00:32:40;11.10;99.90
20929;DHT22;21895;47.072;15.132;2023-08-08T00:35:08;11.10;99.90
20929;DHT22;21895;47.072;15.132;2023-08-08T00:37:35;11.10;99.90
20929;DHT22;21895;47.072;15.132;2023-08-08T00:40:01;11.10;99.90
20929;DHT22;21895;47.072;15.132;2023-08-08T00:42:28;11.10;99.90
20929;DHT22;21895;47.072;15.132;2023-08-08T00:44:55;11.10;99.90
20929;DHT22;21895;47.072;15.132;2023-08-08T00:47:28;11.20;99.90
20929;DHT22;21895;47.072;15.132;2023-08-08T00:49:55;11.30;99.90
20929;DHT22;21895;47.072;15.132;2023-08-08T00:52:22;11.50;99.90
20929;DHT22;21895;47.072;15.132;2023-08-08T00:54:49;11.40;99.90
20929;DHT22;21895;47.072;15.132;2023-08-08T00:57:15;11.30;99.90
20929;DHT22;21895;47.072;15.132;2023-08-08T00:59:42;11.20;99.90
20929;DHT22;21895;47.072;15.132;2023-08-08T01:02:09;11.00;99.90
20929;DHT22;21895;47.072;15.132;2023-08-08T01:04:35;11.00;99.90
20929;DHT22;21895;47.072;15.132;2023-08-08T01:07:41;10.90;99.90
20929;DHT22;21895;47.072;15.132;2023-08-08T01:10:25;10.90;99.90
20929;DHT22;21895;47.072;15.132;2023-08-08T01:12:58;10.90;99.90
20929;DHT22;21895;47.072;15.132;2023-08-08T01:15:29;10.90;99.90
20929;DHT22;21895;47.072;15.132;2023-08-08T01:18:03;10.90;99.90
20929;DHT22;21895;47.072;15.132;2023-08-08T01:20:32;10.90;99.90
20929;DHT22;21895;47.072;15.132;2023-08-08T01:24:22;10.90;99.90
20929;DHT22;21895;47.072;15.132;2023-08-08T01:26:52;10.80;99.90
20929;DHT22;21895;47.072;15.132;2023-08-08T01:29:19;11.00;99.90
20929;DHT22;21895;47.072;15.132;2023-08-08T01:31:45;11.10;99.90
20929;DHT22;21895;47.072;15.132;2023-08-08T01:34:12;11.10;99.90
20929;DHT22;21895;47.072;15.132;2023-08-08T01:36:59;10.80;99.90
20929;DHT22;21895;47.072;15.132;2023-08-08T01:39:34;10.70;99.90
20929;DHT22;21895;47.072;15.132;2023-08-08T01:42:01;10.60;99.90
20929;DHT22;21895;47.072;15.132;2023-08-08T01:44:29;10.60;99.90
20929;DHT22;21895;47.072;15.132;2023-08-08T01:46:57;10.60;99.90
20929;DHT22;21895;47.072;15.132;2023-08-08T01:49:23;10.60;99.90
20929;DHT22;21895;47.072;15.132;2023-08-08T01:51:50;10.40;99.90
20929;DHT22;21895;47.072;15.132;2023-08-08T01:54:18;10.30;99.90
20929;DHT22;21895;47.072;15.132;2023-08-08T01:56:45;10.20;99.90
20929;DHT22;21895;47.072;15.132;2023-08-08T01:59:12;10.10;99.90
20929;DHT22;21895;47.072;15.132;2023-08-08T02:01:41;10.10;99.90
20929;DHT22;21895;47.072;15.132;2023-08-08T02:04:08;10.10;99.90
20929;DHT22;21895;47.072;15.132;2023-08-08T02:06:35;10.20;99.90
20929;DHT22;21895;47.072;15.132;2023-08-08T02:09:01;10.20;99.90
20929;DHT22;21895;47.072;15.132;2023-08-08T02:11:28;10.20;99.90
20929;DHT22;21895;47.072;15.132;2023-08-08T02:13:54;10.10;99.90
20929;DHT22;21895;47.072;15.132;2023-08-08T02:16:21;10.10;99.90
20929;DHT22;21895;47.072;15.132;2023-08-08T02:18:48;10.00;99.90
20929;DHT22;21895;47.072;15.132;2023-08-08T02:21:17;10.00;99.90
20929;DHT22;21895;47.072;15.132;2023-08-08T02:23:43;9.90;99.90
20929;DHT22;21895;47.072;15.132;2023-08-08T02:26:10;9.90;99.90
20929;DHT22;21895;47.072;15.132;2023-08-08T02:28:36;9.90;99.90
20929;DHT22;21895;47.072;15.132;2023-08-08T02:31:03;9.80;99.90
20929;DHT22;21895;47.072;15.132;2023-08-08T02:33:30;9.90;99.90
20929;DHT22;21895;47.072;15.132;2023-08-08T02:35:56;10.00;99.90
20929;DHT22;21895;47.072;15.132;2023-08-08T02:38:23;9.90;99.90
20929;DHT22;21895;47.072;15.132;2023-08-08T02:40:49;9.90;99.90
20929;DHT22;21895;47.072;15.132;2023-08-08T02:43:16;9.80;99.90
20929;DHT22;21895;47.072;15.132;2023-08-08T02:45:42;9.80;99.90
20929;DHT22;21895;47.072;15.132;2023-08-08T02:48:09;9.70;99.90
20929;DHT22;21895;47.072;15.132;2023-08-08T02:50:36;9.60;99.90
20929;DHT22;21895;47.072;15.132;2023-08-08T02:53:02;9.50;99.90
20929;DHT22;21895;47.072;15.132;2023-08-08T02:55:31;9.50;99.90
20929;DHT22;21895;47.072;15.132;2023-08-08T02:57:58;9.50;99.90
20929;DHT22;21895;47.072;15.132;2023-08-08T03:00:24;9.50;99.90
20929;DHT22;21895;47.072;15.132;2023-08-08T03:02:52;9.90;99.90
20929;DHT22;21895;47.072;15.132;2023-08-08T03:05:18;10.10;99.90
20929;DHT22;21895;47.072;15.132;2023-08-08T03:07:45;9.90;99.90
20929;DHT22;21895;47.072;15.132;2023-08-08T03:10:12;9.80;99.90
20929;DHT22;21895;47.072;15.132;2023-08-08T03:12:39;9.90;99.90
20929;DHT22;21895;47.072;15.132;2023-08-08T03:15:08;10.00;99.90
20929;DHT22;21895;47.072;15.132;2023-08-08T03:17:34;10.10;99.90
20929;DHT22;21895;47.072;15.132;2023-08-08T03:20:01;9.80;99.90
20929;DHT22;21895;47.072;15.132;2023-08-08T03:22:31;9.80;99.90
20929;DHT22;21895;47.072;15.132;2023-08-08T03:24:58;9.90;99.90
20929;DHT22;21895;47.072;15.132;2023-08-08T03:27:27;9.90;99.90
20929;DHT22;21895;47.072;15.132;2023-08-08T03:29:53;9.70;99.90
20929;DHT22;21895;47.072;15.132;2023-08-08T03:32:20;9.60;99.90
20929;DHT22;21895;47.072;15.132;2023-08-08T03:34:46;9.40;99.90
20929;DHT22;21895;47.072;15.132;2023-08-08T03:37:15;9.30;99.90
20929;DHT22;21895;47.072;15.132;2023-08-08T03:39:42;9.30;99.90
20929;DHT22;21895;47.072;15.132;2023-08-08T03:42:09;9.40;99.90
20929;DHT22;21895;47.072;15.132;2023-08-08T03:44:35;9.50;99.90
20929;DHT22;21895;47.072;15.132;2023-08-08T03:47:02;9.40;99.90
20929;DHT22;21895;47.072;15.132;2023-08-08T03:49:45;9.50;99.90
20929;DHT22;21895;47.072;15.132;2023-08-08T03:52:11;9.50;99.90
20929;DHT22;21895;47.072;15.132;2023-08-08T03:54:39;9.30;99.90
20929;DHT22;21895;47.072;15.132;2023-08-08T03:57:06;9.50;99.90
20929;DHT22;21895;47.072;15.132;2023-08-08T03:59:32;9.70;99.90
20929;DHT22;21895;47.072;15.132;2023-08-08T04:01:59;9.80;99.90
20929;DHT22;21895;47.072;15.132;2023-08-08T04:04:26;9.90;99.90
20929;DHT22;21895;47.072;15.132;2023-08-08T04:06:53;9.80;99.90
20929;DHT22;21895;47.072;15.132;2023-08-08T04:09:19;9.90;99.90
20929;DHT22;21895;47.072;15.132;2023-08-08T04:11:46;9.90;99.90
20929;DHT22;21895;47.072;15.132;2023-08-08T04:14:13;10.00;99.90
20929;DHT22;21895;47.072;15.132;2023-08-08T04:16:40;10.10;99.90
20929;DHT22;21895;47.072;15.132;2023-08-08T04:19:06;10.20;99.90
20929;DHT22;21895;47.072;15.132;2023-08-08T04:21:33;10.20;99.90
20929;DHT22;21895;47.072;15.132;2023-08-08T04:23:59;10.10;99.90
20929;DHT22;21895;47.072;15.132;2023-08-08T04:26:26;9.80;99.90
20929;DHT22;21895;47.072;15.132;2023-08-08T04:28:53;9.60;99.90
20929;DHT22;21895;47.072;15.132;2023-08-08T04:31:21;9.50;99.90
20929;DHT22;21895;47.072;15.132;2023-08-08T04:33:51;9.50;99.90
20929;DHT22;21895;47.072;15.132;2023-08-08T04:36:24;9.50;99.90
20929;DHT22;21895;47.072;15.132;2023-08-08T04:38:51;9.70;99.90
20929;DHT22;21895;47.072;15.132;2023-08-08T04:41:18;9.80;99.90
20929;DHT22;21895;47.072;15.132;2023-08-08T04:43:44;9.90;99.90
20929;DHT22;21895;47.072;15.132;2023-08-08T04:46:11;9.90;99.90
20929;DHT22;21895;47.072;15.132;2023-08-08T04:48:38;9.90;99.90
20929;DHT22;21895;47.072;15.132;2023-08-08T04:51:06;9.90;99.90
20929;DHT22;21895;47.072;15.132;2023-08-08T04:53:35;9.90;99.90
20929;DHT22;21895;47.072;15.132;2023-08-08T04:56:02;10.00;99.90
20929;DHT22;21895;47.072;15.132;2023-08-08T04:58:29;10.10;99.90
20929;DHT22;21895;47.072;15.132;2023-08-08T05:00:56;10.30;99.90
20929;DHT22;21895;47.072;15.132;2023-08-08T05:03:22;10.50;99.90
20929;DHT22;21895;47.072;15.132;2023-08-08T05:05:49;10.60;99.90
20929;DHT22;21895;47.072;15.132;2023-08-08T05:08:16;10.80;99.90
20929;DHT22;21895;47.072;15.132;2023-08-08T05:10:46;11.00;99.90
20929;DHT22;21895;47.072;15.132;2023-08-08T05:13:13;11.10;99.90
20929;DHT22;21895;47.072;15.132;2023-08-08T05:15:39;11.20;99.90
20929;DHT22;21895;47.072;15.132;2023-08-08T05:18:06;11.10;99.90
20929;DHT22;21895;47.072;15.132;2023-08-08T05:20:33;11.20;99.90
20929;DHT22;21895;47.072;15.132;2023-08-08T05:22:59;11.40;99.90
20929;DHT22;21895;47.072;15.132;2023-08-08T05:25:26;11.50;99.90
20929;DHT22;21895;47.072;15.132;2023-08-08T05:27:52;11.80;99.90
20929;DHT22;21895;47.072;15.132;2023-08-08T05:30:19;12.20;99.90
20929;DHT22;21895;47.072;15.132;2023-08-08T05:32:47;12.70;99.90
20929;DHT22;21895;47.072;15.132;2023-08-08T05:35:14;13.10;99.90
20929;DHT22;21895;47.072;15.132;2023-08-08T05:37:41;13.50;99.90
20929;DHT22;21895;47.072;15.132;2023-08-08T05:40:08;13.90;99.90
20929;DHT22;21895;47.072;15.132;2023-08-08T05:42:37;14.20;99.90
20929;DHT22;21895;47.072;15.132;2023-08-08T05:45:05;14.50;99.90
20929;DHT22;21895;47.072;15.132;2023-08-08T05:47:32;14.60;99.90
20929;DHT22;21895;47.072;15.132;2023-08-08T05:49:59;14.80;99.90
20929;DHT22;21895;47.072;15.132;2023-08-08T05:52:26;15.10;99.90
20929;DHT22;21895;47.072;15.132;2023-08-08T05:54:52;15.20;99.90
20929;DHT22;21895;47.072;15.132;2023-08-08T05:57:19;15.30;99.90
20929;DHT22;21895;47.072;15.132;2023-08-08T05:59:48;15.50;99.90
20929;DHT22;21895;47.072;15.132;2023-08-08T06:02:15;15.80;99.90
20929;DHT22;21895;47.072;15.132;2023-08-08T06:04:41;15.90;99.90
20929;DHT22;21895;47.072;15.132;2023-08-08T06:07:08;16.10;99.90
20929;DHT22;21895;47.072;15.132;2023-08-08T06:09:36;16.00;99.90
20929;DHT22;21895;47.072;15.132;2023-08-08T06:12:04;16.00;99.90
20929;DHT22;21895;47.072;15.132;2023-08-08T06:14:31;16.30;99.90
20929;DHT22;21895;47.072;15.132;2023-08-08T06:16:57;16.30;99.90
20929;DHT22;21895;47.072;15.132;2023-08-08T06:19:24;16.40;99.90
20929;DHT22;21895;47.072;15.132;2023-08-08T06:21:51;16.50;99.90
20929;DHT22;21895;47.072;15.132;2023-08-08T06:24:17;16.70;99.90
20929;DHT22;21895;47.072;15.132;2023-08-08T06:26:44;16.80;99.90
20929;DHT22;21895;47.072;15.132;2023-08-08T06:29:11;17.00;99.90
20929;DHT22;21895;47.072;15.132;2023-08-08T06:31:38;17.10;99.90
20929;DHT22;21895;47.072;15.132;2023-08-08T06:34:05;17.30;99.90
20929;DHT22;21895;47.072;15.132;2023-08-08T06:36:31;17.50;99.90
20929;DHT22;21895;47.072;15.132;2023-08-08T06:38:58;17.70;99.00
20929;DHT22;21895;47.072;15.132;2023-08-08T06:41:25;17.90;98.50
20929;DHT22;21895;47.072;15.132;2023-08-08T06:43:51;17.90;99.90
20929;DHT22;21895;47.072;15.132;2023-08-08T06:46:18;17.80;99.70
20929;DHT22;21895;47.072;15.132;2023-08-08T06:48:46;17.80;99.30
20929;DHT22;21895;47.072;15.132;2023-08-08T06:51:13;17.90;99.20
20929;DHT22;21895;47.072;15.132;2023-08-08T06:53:40;17.90;99.30
20929;DHT22;21895;47.072;15.132;2023-08-08T06:56:07;17.80;99.90
20929;DHT22;21895;47.072;15.132;2023-08-08T06:58:33;17.90;99.90
20929;DHT22;21895;47.072;15.132;2023-08-08T07:01:00;18.10;99.90
20929;DHT22;21895;47.072;15.132;2023-08-08T07:03:26;18.40;99.90
20929;DHT22;21895;47.072;15.132;2023-08-08T07:05:53;18.50;99.90
20929;DHT22;21895;47.072;15.132;2023-08-08T07:08:20;18.60;99.60
20929;DHT22;21895;47.072;15.132;2023-08-08T07:10:46;18.70;99.90
20929;DHT22;21895;47.072;15.132;2023-08-08T07:13:13;18.80;99.60
20929;DHT22;21895;47.072;15.132;2023-08-08T07:15:41;18.80;99.90
20929;DHT22;21895;47.072;15.132;2023-08-08T07:18:08;19.00;99.90
20929;DHT22;21895;47.072;15.132;2023-08-08T07:20:35;19.40;99.90
20929;DHT22;21895;47.072;15.132;2023-08-08T07:23:01;19.80;99.90
20929;DHT22;21895;47.072;15.132;2023-08-08T07:25:28;19.90;99.80
20929;DHT22;21895;47.072;15.132;2023-08-08T07:27:55;20.00;99.40
20929;DHT22;21895;47.072;15.132;2023-08-08T07:30:22;20.00;98.00
20929;DHT22;21895;47.072;15.132;2023-08-08T07:32:48;19.90;97.30
20929;DHT22;21895;47.072;15.132;2023-08-08T07:35:15;19.90;98.10
20929;DHT22;21895;47.072;15.132;2023-08-08T07:37:43;20.00;97.40
20929;DHT22;21895;47.072;15.132;2023-08-08T07:40:20;20.00;95.90
20929;DHT22;21895;47.072;15.132;2023-08-08T07:42:48;20.30;96.60
20929;DHT22;21895;47.072;15.132;2023-08-08T07:45:16;20.50;94.90
20929;DHT22;21895;47.072;15.132;2023-08-08T07:47:43;20.40;93.80
20929;DHT22;21895;47.072;15.132;2023-08-08T07:50:10;20.10;94.00
20929;DHT22;21895;47.072;15.132;2023-08-08T07:52:37;20.10;93.90
20929;DHT22;21895;47.072;15.132;2023-08-08T07:55:05;20.40;95.90
20929;DHT22;21895;47.072;15.132;2023-08-08T07:57:32;20.50;94.30
20929;DHT22;21895;47.072;15.132;2023-08-08T08:00:03;20.60;94.40
20929;DHT22;21895;47.072;15.132;2023-08-08T08:02:43;20.90;93.80
20929;DHT22;21895;47.072;15.132;2023-08-08T08:05:12;21.00;93.60
20929;DHT22;21895;47.072;15.132;2023-08-08T08:07:39;20.90;92.10
20929;DHT22;21895;47.072;15.132;2023-08-08T08:10:08;21.00;93.20
20929;DHT22;21895;47.072;15.132;2023-08-08T08:12:40;21.10;93.00
20929;DHT22;21895;47.072;15.132;2023-08-08T08:15:08;21.20;92.50
20929;DHT22;21895;47.072;15.132;2023-08-08T08:17:35;21.30;93.30
20929;DHT22;21895;47.072;15.132;2023-08-08T08:20:02;21.40;92.30
20929;DHT22;21895;47.072;15.132;2023-08-08T08:22:37;21.40;93.70
20929;DHT22;21895;47.072;15.132;2023-08-08T08:25:05;21.50;91.40
20929;DHT22;21895;47.072;15.132;2023-08-08T08:27:34;21.30;91.90
20929;DHT22;21895;47.072;15.132;2023-08-08T08:30:01;21.30;91.50
20929;DHT22;21895;47.072;15.132;2023-08-08T08:32:33;21.40;90.90
20929;DHT22;21895;47.072;15.132;2023-08-08T08:35:02;21.50;90.60
20929;DHT22;21895;47.072;15.132;2023-08-08T08:37:33;21.50;90.70
20929;DHT22;21895;47.072;15.132;2023-08-08T08:40:00;21.50;89.50
20929;DHT22;21895;47.072;15.132;2023-08-08T08:42:28;21.50;90.60
20929;DHT22;21895;47.072;15.132;2023-08-08T08:44:58;21.50;90.20
20929;DHT22;21895;47.072;15.132;2023-08-08T08:47:25;21.70;90.40
20929;DHT22;21895;47.072;15.132;2023-08-08T08:49:56;21.90;89.20
20929;DHT22;21895;47.072;15.132;2023-08-08T08:52:23;22.10;86.10
20929;DHT22;21895;47.072;15.132;2023-08-08T08:54:51;22.00;85.00
20929;DHT22;21895;47.072;15.132;2023-08-08T08:57:22;22.10;86.00
20929;DHT22;21895;47.072;15.132;2023-08-08T08:59:50;22.20;84.30
20929;DHT22;21895;47.072;15.132;2023-08-08T09:02:18;22.40;85.20
20929;DHT22;21895;47.072;15.132;2023-08-08T09:04:46;22.70;87.50
20929;DHT22;21895;47.072;15.132;2023-08-08T09:07:13;22.50;85.70
20929;DHT22;21895;47.072;15.132;2023-08-08T09:09:44;22.30;85.10
20929;DHT22;21895;47.072;15.132;2023-08-08T09:12:11;22.50;88.90
20929;DHT22;21895;47.072;15.132;2023-08-08T09:14:42;22.50;85.80
20929;DHT22;21895;47.072;15.132;2023-08-08T09:17:12;22.30;86.90
20929;DHT22;21895;47.072;15.132;2023-08-08T09:19:43;22.40;87.10
20929;DHT22;21895;47.072;15.132;2023-08-08T09:22:11;22.20;87.00
20929;DHT22;21895;47.072;15.132;2023-08-08T09:24:40;21.90;84.20
20929;DHT22;21895;47.072;15.132;2023-08-08T09:27:08;21.60;87.00
20929;DHT22;21895;47.072;15.132;2023-08-08T09:29:36;21.60;86.90
20929;DHT22;21895;47.072;15.132;2023-08-08T09:32:06;21.50;87.80
20929;DHT22;21895;47.072;15.132;2023-08-08T09:34:34;21.50;88.40
20929;DHT22;21895;47.072;15.132;2023-08-08T09:37:01;21.40;87.50
20929;DHT22;21895;47.072;15.132;2023-08-08T09:39:28;21.80;87.70
20929;DHT22;21895;47.072;15.132;2023-08-08T09:41:56;22.10;88.80
20929;DHT22;21895;47.072;15.132;2023-08-08T09:44:24;22.50;87.30
20929;DHT22;21895;47.072;15.132;2023-08-08T09:46:52;22.70;85.90
20929;DHT22;21895;47.072;15.132;2023-08-08T09:49:21;22.80;85.80
20929;DHT22;21895;47.072;15.132;2023-08-08T09:51:52;22.80;85.60
20929;DHT22;21895;47.072;15.132;2023-08-08T09:54:19;22.90;83.10
20929;DHT22;21895;47.072;15.132;2023-08-08T09:56:49;23.00;83.90
20929;DHT22;21895;47.072;15.132;2023-08-08T09:59:17;23.10;84.70
20929;DHT22;21895;47.072;15.132;2023-08-08T10:01:44;22.70;80.80
20929;DHT22;21895;47.072;15.132;2023-08-08T10:04:13;22.50;83.90
20929;DHT22;21895;47.072;15.132;2023-08-08T10:06:41;22.30;83.30
20929;DHT22;21895;47.072;15.132;2023-08-08T10:09:07;22.30;82.40
20929;DHT22;21895;47.072;15.132;2023-08-08T10:11:35;22.40;82.80
20929;DHT22;21895;47.072;15.132;2023-08-08T10:14:03;22.50;82.80
20929;DHT22;21895;47.072;15.132;2023-08-08T10:16:33;22.60;82.70
20929;DHT22;21895;47.072;15.132;2023-08-08T10:19:01;22.60;85.30
20929;DHT22;21895;47.072;15.132;2023-08-08T10:21:34;22.80;82.30
20929;DHT22;21895;47.072;15.132;2023-08-08T10:24:06;22.90;84.90
20929;DHT22;21895;47.072;15.132;2023-08-08T10:26:53;22.90;84.40
20929;DHT22;21895;47.072;15.132;2023-08-08T10:29:20;22.70;82.40
20929;DHT22;21895;47.072;15.132;2023-08-08T10:32:04;22.50;83.10
20929;DHT22;21895;47.072;15.132;2023-08-08T10:34:46;22.40;83.10
20929;DHT22;21895;47.072;15.132;2023-08-08T10:37:14;22.50;82.40
20929;DHT22;21895;47.072;15.132;2023-08-08T10:39:58;22.60;80.60
20929;DHT22;21895;47.072;15.132;2023-08-08T10:42:27;22.40;83.20
20929;DHT22;21895;47.072;15.132;2023-08-08T10:44:59;22.00;82.10
20929;DHT22;21895;47.072;15.132;2023-08-08T10:47:32;21.90;81.60
20929;DHT22;21895;47.072;15.132;2023-08-08T10:50:22;21.90;82.80
20929;DHT22;21895;47.072;15.132;2023-08-08T10:52:58;22.30;83.20
20929;DHT22;21895;47.072;15.132;2023-08-08T10:55:27;22.60;82.00
20929;DHT22;21895;47.072;15.132;2023-08-08T10:58:18;22.60;84.30
20929;DHT22;21895;47.072;15.132;2023-08-08T11:00:46;22.80;80.30
20929;DHT22;21895;47.072;15.132;2023-08-08T11:03:14;22.60;83.20
20929;DHT22;21895;47.072;15.132;2023-08-08T11:05:41;22.70;83.00
20929;DHT22;21895;47.072;15.132;2023-08-08T11:08:10;22.80;84.50
20929;DHT22;21895;47.072;15.132;2023-08-08T11:10:40;22.90;82.50
20929;DHT22;21895;47.072;15.132;2023-08-08T11:13:08;22.70;81.70
20929;DHT22;21895;47.072;15.132;2023-08-08T11:15:36;22.60;82.50
20929;DHT22;21895;47.072;15.132;2023-08-08T11:18:03;22.60;80.90
20929;DHT22;21895;47.072;15.132;2023-08-08T11:20:31;22.50;82.10
20929;DHT22;21895;47.072;15.132;2023-08-08T11:23:00;22.60;83.50
20929;DHT22;21895;47.072;15.132;2023-08-08T11:25:29;22.80;82.60
20929;DHT22;21895;47.072;15.132;2023-08-08T11:27:57;23.00;83.30
20929;DHT22;21895;47.072;15.132;2023-08-08T11:30:35;23.20;82.40
20929;DHT22;21895;47.072;15.132;2023-08-08T11:33:04;23.10;81.60
20929;DHT22;21895;47.072;15.132;2023-08-08T11:35:34;23.00;81.70
20929;DHT22;21895;47.072;15.132;2023-08-08T11:38:02;23.20;82.00
20929;DHT22;21895;47.072;15.132;2023-08-08T11:40:30;23.40;84.30
20929;DHT22;21895;47.072;15.132;2023-08-08T11:42:58;23.20;85.80
20929;DHT22;21895;47.072;15.132;2023-08-08T11:45:25;23.00;83.10
20929;DHT22;21895;47.072;15.132;2023-08-08T11:47:54;22.90;82.90
20929;DHT22;21895;47.072;15.132;2023-08-08T11:50:23;22.90;85.60
20929;DHT22;21895;47.072;15.132;2023-08-08T11:52:51;23.00;84.30
20929;DHT22;21895;47.072;15.132;2023-08-08T11:55:20;23.20;84.90
20929;DHT22;21895;47.072;15.132;2023-08-08T11:57:48;23.40;81.50
20929;DHT22;21895;47.072;15.132;2023-08-08T12:00:16;23.60;82.70
20929;DHT22;21895;47.072;15.132;2023-08-08T12:02:44;23.70;81.20
20929;DHT22;21895;47.072;15.132;2023-08-08T12:05:12;23.70;83.10
20929;DHT22;21895;47.072;15.132;2023-08-08T12:07:43;23.70;81.80
20929;DHT22;21895;47.072;15.132;2023-08-08T12:10:19;23.90;81.80
20929;DHT22;21895;47.072;15.132;2023-08-08T12:12:56;23.80;79.20
20929;DHT22;21895;47.072;15.132;2023-08-08T12:15:35;23.90;82.90
20929;DHT22;21895;47.072;15.132;2023-08-08T12:18:03;24.10;82.70
20929;DHT22;21895;47.072;15.132;2023-08-08T12:20:31;24.20;82.60
20929;DHT22;21895;47.072;15.132;2023-08-08T12:22:58;24.00;81.10
20929;DHT22;21895;47.072;15.132;2023-08-08T12:25:26;23.90;81.10
20929;DHT22;21895;47.072;15.132;2023-08-08T12:27:52;24.00;81.80
20929;DHT22;21895;47.072;15.132;2023-08-08T12:30:19;23.90;83.10
20929;DHT22;21895;47.072;15.132;2023-08-08T12:32:45;23.90;79.90
20929;DHT22;21895;47.072;15.132;2023-08-08T12:35:12;23.90;82.30
20929;DHT22;21895;47.072;15.132;2023-08-08T12:37:39;23.90;83.20
20929;DHT22;21895;47.072;15.132;2023-08-08T12:40:06;23.70;81.60
20929;DHT22;21895;47.072;15.132;2023-08-08T12:42:34;23.60;83.20
20929;DHT22;21895;47.072;15.132;2023-08-08T12:45:01;23.20;83.40
20929;DHT22;21895;47.072;15.132;2023-08-08T12:47:27;23.20;83.70
20929;DHT22;21895;47.072;15.132;2023-08-08T12:49:55;23.30;83.90
20929;DHT22;21895;47.072;15.132;2023-08-08T12:52:21;23.10;83.30
20929;DHT22;21895;47.072;15.132;2023-08-08T12:54:51;22.90;83.80
20929;DHT22;21895;47.072;15.132;2023-08-08T12:57:17;23.10;83.50
20929;DHT22;21895;47.072;15.132;2023-08-08T12:59:44;23.30;83.80
20929;DHT22;21895;47.072;15.132;2023-08-08T13:02:11;23.50;83.40
20929;DHT22;21895;47.072;15.132;2023-08-08T13:04:38;23.40;83.50
20929;DHT22;21895;47.072;15.132;2023-08-08T13:07:04;23.20;85.00
20929;DHT22;21895;47.072;15.132;2023-08-08T13:09:31;23.00;85.30
20929;DHT22;21895;47.072;15.132;2023-08-08T13:11:58;22.80;84.70
20929;DHT22;21895;47.072;15.132;2023-08-08T13:14:26;23.00;86.00
20929;DHT22;21895;47.072;15.132;2023-08-08T13:16:52;23.10;85.30
20929;DHT22;21895;47.072;15.132;2023-08-08T13:19:20;23.00;83.50
20929;DHT22;21895;47.072;15.132;2023-08-08T13:21:47;22.80;85.00
20929;DHT22;21895;47.072;15.132;2023-08-08T13:24:16;22.70;84.90
20929;DHT22;21895;47.072;15.132;2023-08-08T13:26:42;22.70;85.60
20929;DHT22;21895;47.072;15.132;2023-08-08T13:29:09;22.80;86.30
20929;DHT22;21895;47.072;15.132;2023-08-08T13:31:35;23.10;85.40
20929;DHT22;21895;47.072;15.132;2023-08-08T13:34:02;23.30;86.10
20929;DHT22;21895;47.072;15.132;2023-08-08T13:36:29;23.50;85.50
20929;DHT22;21895;47.072;15.132;2023-08-08T13:38:55;23.60;84.00
20929;DHT22;21895;47.072;15.132;2023-08-08T13:41:22;23.50;85.50
20929;DHT22;21895;47.072;15.132;2023-08-08T13:43:49;23.50;85.10
20929;DHT22;21895;47.072;15.132;2023-08-08T13:46:15;23.40;85.70
20929;DHT22;21895;47.072;15.132;2023-08-08T13:48:42;23.50;86.70
20929;DHT22;21895;47.072;15.132;2023-08-08T13:51:09;23.30;85.00
20929;DHT22;21895;47.072;15.132;2023-08-08T13:53:35;23.20;86.50
20929;DHT22;21895;47.072;15.132;2023-08-08T13:56:02;23.20;88.30
20929;DHT22;21895;47.072;15.132;2023-08-08T13:58:28;23.30;85.00
20929;DHT22;21895;47.072;15.132;2023-08-08T14:00:55;23.30;83.50
20929;DHT22;21895;47.072;15.132;2023-08-08T14:03:25;23.30;84.40
20929;DHT22;21895;47.072;15.132;2023-08-08T14:05:52;23.10;86.50
20929;DHT22;21895;47.072;15.132;2023-08-08T14:08:18;23.10;87.50
20929;DHT22;21895;47.072;15.132;2023-08-08T14:10:46;23.00;87.10
20929;DHT22;21895;47.072;15.132;2023-08-08T14:13:13;23.00;85.80
20929;DHT22;21895;47.072;15.132;2023-08-08T14:15:39;23.00;88.00
20929;DHT22;21895;47.072;15.132;2023-08-08T14:18:06;23.00;87.00
20929;DHT22;21895;47.072;15.132;2023-08-08T14:20:34;22.90;86.70
20929;DHT22;21895;47.072;15.132;2023-08-08T14:23:00;22.80;86.80
20929;DHT22;21895;47.072;15.132;2023-08-08T14:25:27;22.90;86.50
20929;DHT22;21895;47.072;15.132;2023-08-08T14:27:55;23.20;86.90
20929;DHT22;21895;47.072;15.132;2023-08-08T14:30:23;23.30;86.70
20929;DHT22;21895;47.072;15.132;2023-08-08T14:32:51;23.50;86.50
20929;DHT22;21895;47.072;15.132;2023-08-08T14:35:18;23.50;87.90
20929;DHT22;21895;47.072;15.132;2023-08-08T14:37:45;23.50;86.40
20929;DHT22;21895;47.072;15.132;2023-08-08T14:40:11;23.50;85.70
20929;DHT22;21895;47.072;15.132;2023-08-08T14:42:38;23.60;85.70
20929;DHT22;21895;47.072;15.132;2023-08-08T14:45:05;23.60;84.30
20929;DHT22;21895;47.072;15.132;2023-08-08T14:47:32;23.60;86.00
20929;DHT22;21895;47.072;15.132;2023-08-08T14:49:59;23.60;85.60
20929;DHT22;21895;47.072;15.132;2023-08-08T14:52:26;23.60;86.70
20929;DHT22;21895;47.072;15.132;2023-08-08T14:54:53;23.60;85.60
20929;DHT22;21895;47.072;15.132;2023-08-08T14:57:19;23.50;85.70
20929;DHT22;21895;47.072;15.132;2023-08-08T14:59:46;23.60;86.70
20929;DHT22;21895;47.072;15.132;2023-08-08T15:02:12;23.70;87.00
20929;DHT22;21895;47.072;15.132;2023-08-08T15:04:39;23.70;85.60
20929;DHT22;21895;47.072;15.132;2023-08-08T15:07:06;23.70;87.30
20929;DHT22;21895;47.072;15.132;2023-08-08T15:09:32;23.70;87.60
20929;DHT22;21895;47.072;15.132;2023-08-08T15:11:59;23.80;87.30
20929;DHT22;21895;47.072;15.132;2023-08-08T15:14:25;23.90;84.70
20929;DHT22;21895;47.072;15.132;2023-08-08T15:16:53;23.90;86.10
20929;DHT22;21895;47.072;15.132;2023-08-08T15:19:19;23.80;86.50
20929;DHT22;21895;47.072;15.132;2023-08-08T15:21:46;23.70;85.80
20929;DHT22;21895;47.072;15.132;2023-08-08T15:24:12;23.50;86.50